sensor_id;sensor_type;location;lat;lon;timestamp;temperature;humidity
14850;DHT22;7517;48.400;11.770;2023-01-15T00:00:25;13.50;58.00
14850;DHT22;7517;48.400;11.770;2023-01-15T00:02:55;13.50;57.80
14850;DHT22;7517;48.400;11.770;2023-01-15T00:05:23;13.50;57.60
14850;DHT22;7517;48.400;11.770;2023-01-15T00:07:55;13.50;57.40
14850;DHT22;7517;48.400;11.770;2023-01-15T00:10:22;13.50;57.50
14850;DHT22;7517;48.400;11.770;2023-01-15T00:12:51;13.40;57.50
14850;DHT22;7517;48.400;11.770;2023-01-15T00:15:22;13.40;57.10
14850;DHT22;7517;48.400;11.770;2023-01-15T00:17:49;13.40;57.30
14850;DHT22;7517;48.400;11.770;2023-01-15T00:20:26;13.40;57.60
14850;DHT22;7517;48.400;11.770;2023-01-15T00:23:06;13.40;57.50
14850;DHT22;7517;48.400;11.770;2023-01-15T00:25:58;13.40;57.10
14850;DHT22;7517;48.400;11.770;2023-01-15T00:28:43;13.40;57.10
14850;DHT22;7517;48.400;11.770;2023-01-15T00:31:27;13.40;57.00
14850;DHT22;7517;48.400;11.770;2023-01-15T00:34:03;13.40;56.40
14850;DHT22;7517;48.400;11.770;2023-01-15T00:36:34;13.40;56.50
14850;DHT22;7517;48.400;11.770;2023-01-15T00:39:11;13.40;56.90
14850;DHT22;7517;48.400;11.770;2023-01-15T00:41:43;13.40;57.50
14850;DHT22;7517;48.400;11.770;2023-01-15T00:44:14;13.40;57.70
14850;DHT22;7517;48.400;11.770;2023-01-15T00:46:41;13.40;57.60
14850;DHT22;7517;48.400;11.770;2023-01-15T00:49:08;13.40;58.20
14850;DHT22;7517;48.400;11.770;2023-01-15T00:51:38;13.40;58.80
14850;DHT22;7517;48.400;11.770;2023-01-15T00:54:11;13.40;59.00
14850;DHT22;7517;48.400;11.770;2023-01-15T00:56:45;13.40;59.50
14850;DHT22;7517;48.400;11.770;2023-01-15T00:59:15;13.30;59.80
14850;DHT22;7517;48.400;11.770;2023-01-15T01:01:54;13.30;59.90
14850;DHT22;7517;48.400;11.770;2023-01-15T01:04:24;13.30;59.90
14850;DHT22;7517;48.400;11.770;2023-01-15T01:07:03;13.20;59.90
14850;DHT22;7517;48.400;11.770;2023-01-15T01:09:43;13.20;60.00
14850;DHT22;7517;48.400;11.770;2023-01-15T01:12:13;13.10;60.00
14850;DHT22;7517;48.400;11.770;2023-01-15T01:14:54;13.10;60.40
14850;DHT22;7517;48.400;11.770;2023-01-15T01:17:23;13.10;61.00
14850;DHT22;7517;48.400;11.770;2023-01-15T01:19:50;13.10;61.40
14850;DHT22;7517;48.400;11.770;2023-01-15T01:22:35;13.00;61.00
14850;DHT22;7517;48.400;11.770;2023-01-15T01:25:08;13.00;61.50
14850;DHT22;7517;48.400;11.770;2023-01-15T01:27:47;12.90;60.50
14850;DHT22;7517;48.400;11.770;2023-01-15T01:30:17;12.80;61.10
14850;DHT22;7517;48.400;11.770;2023-01-15T01:32:52;12.80;61.60
14850;DHT22;7517;48.400;11.770;2023-01-15T01:35:22;12.70;61.40
14850;DHT22;7517;48.400;11.770;2023-01-15T01:37:51;12.70;62.10
14850;DHT22;7517;48.400;11.770;2023-01-15T01:40:42;12.60;61.10
14850;DHT22;7517;48.400;11.770;2023-01-15T01:43:19;12.60;61.70
14850;DHT22;7517;48.400;11.770;2023-01-15T01:45:56;12.50;61.40
14850;DHT22;7517;48.400;11.770;2023-01-15T01:48:35;12.40;61.30
14850;DHT22;7517;48.400;11.770;2023-01-15T01:51:11;12.40;62.10
14850;DHT22;7517;48.400;11.770;2023-01-15T01:53:45;12.30;62.40
14850;DHT22;7517;48.400;11.770;2023-01-15T01:56:17;12.30;63.30
14850;DHT22;7517;48.400;11.770;2023-01-15T01:59:03;12.20;63.80
14850;DHT22;7517;48.400;11.770;2023-01-15T02:01:42;12.20;64.30
14850;DHT22;7517;48.400;11.770;2023-01-15T02:04:28;12.20;64.70
14850;DHT22;7517;48.400;11.770;2023-01-15T02:06:59;12.10;64.30
14850;DHT22;7517;48.400;11.770;2023-01-15T02:09:32;12.10;64.00
14850;DHT22;7517;48.400;11.770;2023-01-15T02:12:21;12.00;63.70
14850;DHT22;7517;48.400;11.770;2023-01-15T02:15:05;12.00;64.10
14850;DHT22;7517;48.400;11.770;2023-01-15T02:17:54;11.90;64.40
14850;DHT22;7517;48.400;11.770;2023-01-15T02:20:35;11.90;64.60
14850;DHT22;7517;48.400;11.770;2023-01-15T02:23:57;11.80;64.90
14850;DHT22;7517;48.400;11.770;2023-01-15T02:27:09;11.80;65.20
14850;DHT22;7517;48.400;11.770;2023-01-15T02:29:46;11.90;64.90
14850;DHT22;7517;48.400;11.770;2023-01-15T02:32:43;11.70;65.00
14850;DHT22;7517;48.400;11.770;2023-01-15T02:35:21;11.70;66.00
14850;DHT22;7517;48.400;11.770;2023-01-15T02:37:54;11.70;66.10
14850;DHT22;7517;48.400;11.770;2023-01-15T02:40:36;11.60;66.20
14850;DHT22;7517;48.400;11.770;2023-01-15T02:43:13;11.60;66.70
14850;DHT22;7517;48.400;11.770;2023-01-15T02:45:52;11.60;67.20
14850;DHT22;7517;48.400;11.770;2023-01-15T02:48:37;11.60;66.90
14850;DHT22;7517;48.400;11.770;2023-01-15T02:51:13;11.60;66.90
14850;DHT22;7517;48.400;11.770;2023-01-15T02:53:45;11.60;67.40
14850;DHT22;7517;48.400;11.770;2023-01-15T02:56:31;11.60;67.60
14850;DHT22;7517;48.400;11.770;2023-01-15T02:59:10;11.60;67.40
14850;DHT22;7517;48.400;11.770;2023-01-15T03:02:10;11.60;67.60
14850;DHT22;7517;48.400;11.770;2023-01-15T03:05:10;11.60;68.20
14850;DHT22;7517;48.400;11.770;2023-01-15T03:07:47;11.60;67.80
14850;DHT22;7517;48.400;11.770;2023-01-15T03:10:29;11.60;66.90
14850;DHT22;7517;48.400;11.770;2023-01-15T03:13:04;11.60;66.50
14850;DHT22;7517;48.400;11.770;2023-01-15T03:15:50;11.50;66.20
14850;DHT22;7517;48.400;11.770;2023-01-15T03:18:43;11.50;66.60
14850;DHT22;7517;48.400;11.770;2023-01-15T03:21:20;11.50;66.30
14850;DHT22;7517;48.400;11.770;2023-01-15T03:23:53;11.50;66.50
14850;DHT22;7517;48.400;11.770;2023-01-15T03:26:21;11.50;67.00
14850;DHT22;7517;48.400;11.770;2023-01-15T03:28:49;11.50;67.60
14850;DHT22;7517;48.400;11.770;2023-01-15T03:31:18;11.50;67.90
14850;DHT22;7517;48.400;11.770;2023-01-15T03:33:46;11.50;68.40
14850;DHT22;7517;48.400;11.770;2023-01-15T03:36:13;11.50;68.70
14850;DHT22;7517;48.400;11.770;2023-01-15T03:38:41;11.50;69.00
14850;DHT22;7517;48.400;11.770;2023-01-15T03:41:23;11.50;69.00
14850;DHT22;7517;48.400;11.770;2023-01-15T03:44:06;11.50;69.50
14850;DHT22;7517;48.400;11.770;2023-01-15T03:46:53;11.50;69.90
14850;DHT22;7517;48.400;11.770;2023-01-15T03:49:35;11.50;69.40
14850;DHT22;7517;48.400;11.770;2023-01-15T03:52:14;11.50;69.60
14850;DHT22;7517;48.400;11.770;2023-01-15T03:54:50;11.50;69.70
14850;DHT22;7517;48.400;11.770;2023-01-15T03:57:29;11.50;69.80
14850;DHT22;7517;48.400;11.770;2023-01-15T04:00:07;11.50;69.90
14850;DHT22;7517;48.400;11.770;2023-01-15T04:02:41;11.50;70.00
14850;DHT22;7517;48.400;11.770;2023-01-15T04:05:12;11.50;70.00
14850;DHT22;7517;48.400;11.770;2023-01-15T04:07:42;11.50;70.10
14850;DHT22;7517;48.400;11.770;2023-01-15T04:10:10;11.50;70.20
14850;DHT22;7517;48.400;11.770;2023-01-15T04:12:37;11.50;70.20
14850;DHT22;7517;48.400;11.770;2023-01-15T04:15:06;11.50;70.20
14850;DHT22;7517;48.400;11.770;2023-01-15T04:17:34;11.50;70.40
14850;DHT22;7517;48.400;11.770;2023-01-15T04:20:03;11.50;70.40
14850;DHT22;7517;48.400;11.770;2023-01-15T04:22:31;11.60;70.50
14850;DHT22;7517;48.400;11.770;2023-01-15T04:25:00;11.50;70.50
14850;DHT22;7517;48.400;11.770;2023-01-15T04:27:28;11.60;70.60
14850;DHT22;7517;48.400;11.770;2023-01-15T04:29:55;11.60;70.70
14850;DHT22;7517;48.400;11.770;2023-01-15T04:32:23;11.60;70.70
14850;DHT22;7517;48.400;11.770;2023-01-15T04:34:52;11.60;70.70
14850;DHT22;7517;48.400;11.770;2023-01-15T04:37:23;11.60;70.80
14850;DHT22;7517;48.400;11.770;2023-01-15T04:39:50;11.60;70.90
14850;DHT22;7517;48.400;11.770;2023-01-15T04:42:17;11.60;70.80
14850;DHT22;7517;48.400;11.770;2023-01-15T04:45:02;11.60;70.60
14850;DHT22;7517;48.400;11.770;2023-01-15T04:47:33;11.60;70.50
14850;DHT22;7517;48.400;11.770;2023-01-15T04:50:00;11.60;70.50
14850;DHT22;7517;48.400;11.770;2023-01-15T04:52:28;11.60;70.70
14850;DHT22;7517;48.400;11.770;2023-01-15T04:54:56;11.60;70.90
14850;DHT22;7517;48.400;11.770;2023-01-15T04:57:26;11.60;70.80
14850;DHT22;7517;48.400;11.770;2023-01-15T04:59:53;11.70;70.90
14850;DHT22;7517;48.400;11.770;2023-01-15T05:02:20;11.70;70.80
14850;DHT22;7517;48.400;11.770;2023-01-15T05:04:47;11.70;70.50
14850;DHT22;7517;48.400;11.770;2023-01-15T05:07:15;11.70;70.60
14850;DHT22;7517;48.400;11.770;2023-01-15T05:09:43;11.70;70.70
14850;DHT22;7517;48.400;11.770;2023-01-15T05:12:11;11.70;70.70
14850;DHT22;7517;48.400;11.770;2023-01-15T05:14:39;11.70;70.80
14850;DHT22;7517;48.400;11.770;2023-01-15T05:17:06;11.70;70.80
14850;DHT22;7517;48.400;11.770;2023-01-15T05:19:33;11.70;70.50
14850;DHT22;7517;48.400;11.770;2023-01-15T05:22:00;11.70;70.40
14850;DHT22;7517;48.400;11.770;2023-01-15T05:24:27;11.70;70.60
14850;DHT22;7517;48.400;11.770;2023-01-15T05:26:56;11.70;70.50
14850;DHT22;7517;48.400;11.770;2023-01-15T05:29:23;11.70;70.50
14850;DHT22;7517;48.400;11.770;2023-01-15T05:31:51;11.70;70.60
14850;DHT22;7517;48.400;11.770;2023-01-15T05:34:18;11.70;70.50
14850;DHT22;7517;48.400;11.770;2023-01-15T05:36:45;11.60;70.50
14850;DHT22;7517;48.400;11.770;2023-01-15T05:39:12;11.60;70.50
14850;DHT22;7517;48.400;11.770;2023-01-15T05:41:40;11.60;70.50
14850;DHT22;7517;48.400;11.770;2023-01-15T05:44:20;11.60;70.50
14850;DHT22;7517;48.400;11.770;2023-01-15T05:46:51;11.60;70.50
14850;DHT22;7517;48.400;11.770;2023-01-15T05:49:21;11.60;71.40
14850;DHT22;7517;48.400;11.770;2023-01-15T05:51:50;11.60;70.90
14850;DHT22;7517;48.400;11.770;2023-01-15T05:54:20;11.60;71.10
14850;DHT22;7517;48.400;11.770;2023-01-15T05:56:48;11.70;71.30
14850;DHT22;7517;48.400;11.770;2023-01-15T05:59:19;11.70;71.30
14850;DHT22;7517;48.400;11.770;2023-01-15T06:01:48;11.70;71.30
14850;DHT22;7517;48.400;11.770;2023-01-15T06:04:15;11.70;71.40
14850;DHT22;7517;48.400;11.770;2023-01-15T06:06:46;11.70;71.40
14850;DHT22;7517;48.400;11.770;2023-01-15T06:09:14;11.70;71.40
14850;DHT22;7517;48.400;11.770;2023-01-15T06:11:41;11.70;71.40
14850;DHT22;7517;48.400;11.770;2023-01-15T06:14:09;11.70;71.40
14850;DHT22;7517;48.400;11.770;2023-01-15T06:16:38;11.70;71.40
14850;DHT22;7517;48.400;11.770;2023-01-15T06:19:07;11.70;71.40
14850;DHT22;7517;48.400;11.770;2023-01-15T06:21:35;11.70;71.40
14850;DHT22;7517;48.400;11.770;2023-01-15T06:24:03;11.70;71.40
14850;DHT22;7517;48.400;11.770;2023-01-15T06:26:31;11.70;71.40
14850;DHT22;7517;48.400;11.770;2023-01-15T06:28:59;11.70;71.40
14850;DHT22;7517;48.400;11.770;2023-01-15T06:31:26;11.70;71.30
14850;DHT22;7517;48.400;11.770;2023-01-15T06:33:55;11.60;71.30
14850;DHT22;7517;48.400;11.770;2023-01-15T06:36:24;11.60;71.50
14850;DHT22;7517;48.400;11.770;2023-01-15T06:38:52;11.60;71.70
14850;DHT22;7517;48.400;11.770;2023-01-15T06:41:21;11.60;71.70
14850;DHT22;7517;48.400;11.770;2023-01-15T06:44:11;11.60;71.70
14850;DHT22;7517;48.400;11.770;2023-01-15T06:46:57;11.60;72.40
14850;DHT22;7517;48.400;11.770;2023-01-15T06:49:45;11.60;71.70
14850;DHT22;7517;48.400;11.770;2023-01-15T06:52:13;11.60;71.60
14850;DHT22;7517;48.400;11.770;2023-01-15T06:54:40;11.60;71.50
14850;DHT22;7517;48.400;11.770;2023-01-15T06:57:07;11.60;71.70
14850;DHT22;7517;48.400;11.770;2023-01-15T06:59:34;11.60;71.80
14850;DHT22;7517;48.400;11.770;2023-01-15T07:02:02;11.50;71.90
14850;DHT22;7517;48.400;11.770;2023-01-15T07:04:29;11.50;71.90
14850;DHT22;7517;48.400;11.770;2023-01-15T07:06:58;11.50;71.80
14850;DHT22;7517;48.400;11.770;2023-01-15T07:09:25;11.50;71.70
14850;DHT22;7517;48.400;11.770;2023-01-15T07:11:53;11.50;71.50
14850;DHT22;7517;48.400;11.770;2023-01-15T07:14:22;11.50;71.40
14850;DHT22;7517;48.400;11.770;2023-01-15T07:16:52;11.60;71.60
14850;DHT22;7517;48.400;11.770;2023-01-15T07:19:20;11.60;71.60
14850;DHT22;7517;48.400;11.770;2023-01-15T07:21:47;11.70;71.70
14850;DHT22;7517;48.400;11.770;2023-01-15T07:24:17;11.70;71.60
14850;DHT22;7517;48.400;11.770;2023-01-15T07:26:44;11.80;71.70
14850;DHT22;7517;48.400;11.770;2023-01-15T07:29:12;11.90;71.80
14850;DHT22;7517;48.400;11.770;2023-01-15T07:31:39;12.00;72.00
14850;DHT22;7517;48.400;11.770;2023-01-15T07:34:07;12.00;72.20
14850;DHT22;7517;48.400;11.770;2023-01-15T07:36:35;12.20;72.50
14850;DHT22;7517;48.400;11.770;2023-01-15T07:39:03;12.30;72.80
14850;DHT22;7517;48.400;11.770;2023-01-15T07:41:32;12.40;73.00
14850;DHT22;7517;48.400;11.770;2023-01-15T07:44:17;12.60;73.00
14850;DHT22;7517;48.400;11.770;2023-01-15T07:47:02;12.70;72.90
14850;DHT22;7517;48.400;11.770;2023-01-15T07:49:52;12.90;72.80
14850;DHT22;7517;48.400;11.770;2023-01-15T07:52:21;13.10;72.70
14850;DHT22;7517;48.400;11.770;2023-01-15T07:54:49;13.30;72.50
14850;DHT22;7517;48.400;11.770;2023-01-15T07:57:20;13.40;72.20
14850;DHT22;7517;48.400;11.770;2023-01-15T07:59:48;13.60;71.90
14850;DHT22;7517;48.400;11.770;2023-01-15T08:02:16;13.80;71.70
14850;DHT22;7517;48.400;11.770;2023-01-15T08:04:43;13.90;71.40
14850;DHT22;7517;48.400;11.770;2023-01-15T08:07:16;14.00;71.00
14850;DHT22;7517;48.400;11.770;2023-01-15T08:09:43;14.10;70.60
14850;DHT22;7517;48.400;11.770;2023-01-15T08:12:10;14.30;70.50
14850;DHT22;7517;48.400;11.770;2023-01-15T08:14:56;14.40;70.20
14850;DHT22;7517;48.400;11.770;2023-01-15T08:17:39;14.50;69.70
14850;DHT22;7517;48.400;11.770;2023-01-15T08:20:10;14.60;69.40
14850;DHT22;7517;48.400;11.770;2023-01-15T08:22:39;14.80;69.10
14850;DHT22;7517;48.400;11.770;2023-01-15T08:25:08;14.80;68.70
14850;DHT22;7517;48.400;11.770;2023-01-15T08:27:37;14.90;68.40
14850;DHT22;7517;48.400;11.770;2023-01-15T08:30:11;15.00;68.30
14850;DHT22;7517;48.400;11.770;2023-01-15T08:32:40;15.10;67.80
14850;DHT22;7517;48.400;11.770;2023-01-15T08:35:08;15.20;67.70
14850;DHT22;7517;48.400;11.770;2023-01-15T08:37:37;15.30;67.30
14850;DHT22;7517;48.400;11.770;2023-01-15T08:40:05;15.40;67.20
14850;DHT22;7517;48.400;11.770;2023-01-15T08:42:34;15.40;66.90
14850;DHT22;7517;48.400;11.770;2023-01-15T08:45:01;15.50;66.50
14850;DHT22;7517;48.400;11.770;2023-01-15T08:47:30;15.60;66.30
14850;DHT22;7517;48.400;11.770;2023-01-15T08:49:57;15.60;65.60
14850;DHT22;7517;48.400;11.770;2023-01-15T08:52:25;15.70;65.80
14850;DHT22;7517;48.400;11.770;2023-01-15T08:54:52;15.80;65.50
14850;DHT22;7517;48.400;11.770;2023-01-15T08:57:19;15.80;65.20
14850;DHT22;7517;48.400;11.770;2023-01-15T08:59:47;15.90;65.20
14850;DHT22;7517;48.400;11.770;2023-01-15T09:02:14;15.90;65.10
14850;DHT22;7517;48.400;11.770;2023-01-15T09:04:44;16.00;64.60
14850;DHT22;7517;48.400;11.770;2023-01-15T09:07:11;16.00;64.10
14850;DHT22;7517;48.400;11.770;2023-01-15T09:09:38;16.10;64.00
14850;DHT22;7517;48.400;11.770;2023-01-15T09:12:06;16.10;64.00
14850;DHT22;7517;48.400;11.770;2023-01-15T09:14:57;16.20;63.80
14850;DHT22;7517;48.400;11.770;2023-01-15T09:17:29;16.30;63.60
14850;DHT22;7517;48.400;11.770;2023-01-15T09:19:59;16.30;63.50
14850;DHT22;7517;48.400;11.770;2023-01-15T09:22:29;16.40;63.40
14850;DHT22;7517;48.400;11.770;2023-01-15T09:25:06;16.40;63.20
14850;DHT22;7517;48.400;11.770;2023-01-15T09:27:41;16.50;63.00
14850;DHT22;7517;48.400;11.770;2023-01-15T09:30:19;16.50;62.60
14850;DHT22;7517;48.400;11.770;2023-01-15T09:32:51;16.50;62.60
14850;DHT22;7517;48.400;11.770;2023-01-15T09:35:23;16.60;62.60
14850;DHT22;7517;48.400;11.770;2023-01-15T09:37:50;16.60;62.60
14850;DHT22;7517;48.400;11.770;2023-01-15T09:40:36;16.70;62.60
14850;DHT22;7517;48.400;11.770;2023-01-15T09:43:20;16.70;61.90
14850;DHT22;7517;48.400;11.770;2023-01-15T09:45:57;16.80;62.00
14850;DHT22;7517;48.400;11.770;2023-01-15T09:48:45;16.80;62.00
14850;DHT22;7517;48.400;11.770;2023-01-15T09:51:28;16.80;61.20
14850;DHT22;7517;48.400;11.770;2023-01-15T09:54:19;16.90;61.50
14850;DHT22;7517;48.400;11.770;2023-01-15T09:56:55;16.90;61.30
14850;DHT22;7517;48.400;11.770;2023-01-15T09:59:30;16.90;61.40
14850;DHT22;7517;48.400;11.770;2023-01-15T10:02:02;16.90;62.00
14850;DHT22;7517;48.400;11.770;2023-01-15T10:04:42;16.80;61.90
14850;DHT22;7517;48.400;11.770;2023-01-15T10:07:21;16.70;61.60
14850;DHT22;7517;48.400;11.770;2023-01-15T10:09:59;16.60;61.40
14850;DHT22;7517;48.400;11.770;2023-01-15T10:12:30;16.40;61.20
14850;DHT22;7517;48.400;11.770;2023-01-15T10:15:14;16.20;61.40
14850;DHT22;7517;48.400;11.770;2023-01-15T10:17:47;16.00;61.70
14850;DHT22;7517;48.400;11.770;2023-01-15T10:20:41;15.70;61.70
14850;DHT22;7517;48.400;11.770;2023-01-15T10:23:33;15.50;61.70
14850;DHT22;7517;48.400;11.770;2023-01-15T10:26:12;15.30;62.00
14850;DHT22;7517;48.400;11.770;2023-01-15T10:28:57;15.10;62.40
14850;DHT22;7517;48.400;11.770;2023-01-15T10:31:43;14.90;62.90
14850;DHT22;7517;48.400;11.770;2023-01-15T10:34:31;14.70;63.40
14850;DHT22;7517;48.400;11.770;2023-01-15T10:37:22;14.50;64.30
14850;DHT22;7517;48.400;11.770;2023-01-15T10:40:11;14.30;64.30
14850;DHT22;7517;48.400;11.770;2023-01-15T10:42:51;14.10;63.70
14850;DHT22;7517;48.400;11.770;2023-01-15T10:45:29;14.00;64.00
14850;DHT22;7517;48.400;11.770;2023-01-15T10:48:03;13.80;64.10
14850;DHT22;7517;48.400;11.770;2023-01-15T10:50:36;13.70;64.30
14850;DHT22;7517;48.400;11.770;2023-01-15T10:53:10;13.60;64.50
14850;DHT22;7517;48.400;11.770;2023-01-15T10:55:44;13.50;64.80
14850;DHT22;7517;48.400;11.770;2023-01-15T10:58:23;13.40;64.90
14850;DHT22;7517;48.400;11.770;2023-01-15T11:00:59;13.30;64.80
14850;DHT22;7517;48.400;11.770;2023-01-15T11:03:34;13.20;64.90
14850;DHT22;7517;48.400;11.770;2023-01-15T11:06:03;13.20;65.10
14850;DHT22;7517;48.400;11.770;2023-01-15T11:08:34;13.20;65.30
14850;DHT22;7517;48.400;11.770;2023-01-15T11:11:15;13.10;65.10
14850;DHT22;7517;48.400;11.770;2023-01-15T11:13:53;13.10;64.90
14850;DHT22;7517;48.400;11.770;2023-01-15T11:16:39;13.10;65.10
14850;DHT22;7517;48.400;11.770;2023-01-15T11:19:28;13.00;65.00
14850;DHT22;7517;48.400;11.770;2023-01-15T11:22:06;13.00;65.00
14850;DHT22;7517;48.400;11.770;2023-01-15T11:24:37;12.90;64.90
14850;DHT22;7517;48.400;11.770;2023-01-15T11:27:14;12.90;64.90
14850;DHT22;7517;48.400;11.770;2023-01-15T11:29:44;12.80;64.20
14850;DHT22;7517;48.400;11.770;2023-01-15T11:32:25;12.80;64.10
14850;DHT22;7517;48.400;11.770;2023-01-15T11:34:56;12.70;64.00
14850;DHT22;7517;48.400;11.770;2023-01-15T11:37:25;12.70;63.90
14850;DHT22;7517;48.400;11.770;2023-01-15T11:39:57;12.60;63.90
14850;DHT22;7517;48.400;11.770;2023-01-15T11:42:36;12.60;64.00
14850;DHT22;7517;48.400;11.770;2023-01-15T11:45:22;12.60;64.20
14850;DHT22;7517;48.400;11.770;2023-01-15T11:48:17;12.50;64.40
14850;DHT22;7517;48.400;11.770;2023-01-15T11:51:09;12.50;64.80
14850;DHT22;7517;48.400;11.770;2023-01-15T11:53:40;12.40;65.00
14850;DHT22;7517;48.400;11.770;2023-01-15T11:56:14;12.40;65.30
14850;DHT22;7517;48.400;11.770;2023-01-15T11:58:48;12.40;65.60
14850;DHT22;7517;48.400;11.770;2023-01-15T12:01:24;12.30;65.30
14850;DHT22;7517;48.400;11.770;2023-01-15T12:03:54;12.30;65.40
14850;DHT22;7517;48.400;11.770;2023-01-15T12:06:24;12.30;65.40
14850;DHT22;7517;48.400;11.770;2023-01-15T12:08:59;12.20;65.60
14850;DHT22;7517;48.400;11.770;2023-01-15T12:11:49;12.20;65.50
14850;DHT22;7517;48.400;11.770;2023-01-15T12:14:49;12.20;65.60
14850;DHT22;7517;48.400;11.770;2023-01-15T12:17:31;12.20;65.60
14850;DHT22;7517;48.400;11.770;2023-01-15T12:20:25;12.10;65.60
14850;DHT22;7517;48.400;11.770;2023-01-15T12:23:22;12.10;65.70
14850;DHT22;7517;48.400;11.770;2023-01-15T12:26:04;12.10;65.90
14850;DHT22;7517;48.400;11.770;2023-01-15T12:28:49;12.10;65.70
14850;DHT22;7517;48.400;11.770;2023-01-15T12:31:29;12.00;65.60
14850;DHT22;7517;48.400;11.770;2023-01-15T12:34:18;12.00;65.80
14850;DHT22;7517;48.400;11.770;2023-01-15T12:36:51;12.00;65.90
14850;DHT22;7517;48.400;11.770;2023-01-15T12:39:29;12.00;65.90
14850;DHT22;7517;48.400;11.770;2023-01-15T12:42:15;11.90;66.00
14850;DHT22;7517;48.400;11.770;2023-01-15T12:45:07;11.90;66.10
14850;DHT22;7517;48.400;11.770;2023-01-15T12:47:43;11.90;66.20
14850;DHT22;7517;48.400;11.770;2023-01-15T12:50:38;11.90;66.20
14850;DHT22;7517;48.400;11.770;2023-01-15T12:53:34;11.90;66.50
14850;DHT22;7517;48.400;11.770;2023-01-15T12:56:20;11.90;66.20
14850;DHT22;7517;48.400;11.770;2023-01-15T12:59:09;11.80;66.20
14850;DHT22;7517;48.400;11.770;2023-01-15T13:01:51;11.80;66.30
14850;DHT22;7517;48.400;11.770;2023-01-15T13:04:31;11.80;66.60
14850;DHT22;7517;48.400;11.770;2023-01-15T13:07:14;11.80;66.90
14850;DHT22;7517;48.400;11.770;2023-01-15T13:10:03;11.80;67.00
14850;DHT22;7517;48.400;11.770;2023-01-15T13:12:42;11.80;67.00
14850;DHT22;7517;48.400;11.770;2023-01-15T13:15:14;11.70;67.20
14850;DHT22;7517;48.400;11.770;2023-01-15T13:18:04;11.70;67.30
14850;DHT22;7517;48.400;11.770;2023-01-15T13:21:05;11.70;67.60
14850;DHT22;7517;48.400;11.770;2023-01-15T13:24:07;11.70;67.60
14850;DHT22;7517;48.400;11.770;2023-01-15T13:27:06;11.70;67.90
14850;DHT22;7517;48.400;11.770;2023-01-15T13:30:03;11.70;67.90
14850;DHT22;7517;48.400;11.770;2023-01-15T13:32:58;11.70;67.80
14850;DHT22;7517;48.400;11.770;2023-01-15T13:36:22;11.70;67.90
14850;DHT22;7517;48.400;11.770;2023-01-15T13:39:10;11.70;68.10
14850;DHT22;7517;48.400;11.770;2023-01-15T13:41:52;11.70;67.80
14850;DHT22;7517;48.400;11.770;2023-01-15T13:44:45;11.60;67.80
14850;DHT22;7517;48.400;11.770;2023-01-15T13:47:25;11.60;67.70
14850;DHT22;7517;48.400;11.770;2023-01-15T13:49:56;11.50;67.30
14850;DHT22;7517;48.400;11.770;2023-01-15T13:52:35;11.40;67.10
14850;DHT22;7517;48.400;11.770;2023-01-15T13:55:10;11.30;67.40
14850;DHT22;7517;48.400;11.770;2023-01-15T13:57:51;11.20;67.90
14850;DHT22;7517;48.400;11.770;2023-01-15T14:00:34;11.10;67.90
14850;DHT22;7517;48.400;11.770;2023-01-15T14:03:25;11.00;68.40
14850;DHT22;7517;48.400;11.770;2023-01-15T14:06:07;10.90;68.60
14850;DHT22;7517;48.400;11.770;2023-01-15T14:08:44;10.80;68.30
14850;DHT22;7517;48.400;11.770;2023-01-15T14:11:33;10.70;68.40
14850;DHT22;7517;48.400;11.770;2023-01-15T14:14:35;10.70;68.70
14850;DHT22;7517;48.400;11.770;2023-01-15T14:17:36;10.60;68.90
14850;DHT22;7517;48.400;11.770;2023-01-15T14:20:44;10.50;68.90
14850;DHT22;7517;48.400;11.770;2023-01-15T14:26:40;10.40;69.10
14850;DHT22;7517;48.400;11.770;2023-01-15T14:29:50;10.30;69.00
14850;DHT22;7517;48.400;11.770;2023-01-15T14:32:49;10.30;69.20
14850;DHT22;7517;48.400;11.770;2023-01-15T14:35:26;10.30;69.30
14850;DHT22;7517;48.400;11.770;2023-01-15T14:38:03;10.20;69.00
14850;DHT22;7517;48.400;11.770;2023-01-15T14:40:56;10.20;69.20
14850;DHT22;7517;48.400;11.770;2023-01-15T14:43:34;10.20;69.30
14850;DHT22;7517;48.400;11.770;2023-01-15T14:46:20;10.10;69.30
14850;DHT22;7517;48.400;11.770;2023-01-15T14:49:26;10.10;69.40
14850;DHT22;7517;48.400;11.770;2023-01-15T14:51:58;10.10;69.60
14850;DHT22;7517;48.400;11.770;2023-01-15T14:54:30;10.10;69.30
14850;DHT22;7517;48.400;11.770;2023-01-15T14:57:11;10.00;69.20
14850;DHT22;7517;48.400;11.770;2023-01-15T14:59:57;10.00;69.40
14850;DHT22;7517;48.400;11.770;2023-01-15T15:02:43;10.00;69.40
14850;DHT22;7517;48.400;11.770;2023-01-15T15:05:21;10.00;69.50
14850;DHT22;7517;48.400;11.770;2023-01-15T15:07:58;10.00;69.40
14850;DHT22;7517;48.400;11.770;2023-01-15T15:10:31;9.90;69.30
14850;DHT22;7517;48.400;11.770;2023-01-15T15:13:08;9.90;69.20
14850;DHT22;7517;48.400;11.770;2023-01-15T15:15:47;9.90;69.10
14850;DHT22;7517;48.400;11.770;2023-01-15T15:18:27;9.90;69.10
14850;DHT22;7517;48.400;11.770;2023-01-15T15:21:02;9.90;69.20
14850;DHT22;7517;48.400;11.770;2023-01-15T15:23:55;9.90;69.10
14850;DHT22;7517;48.400;11.770;2023-01-15T15:26:29;9.80;69.20
14850;DHT22;7517;48.400;11.770;2023-01-15T15:29:05;9.80;69.10
14850;DHT22;7517;48.400;11.770;2023-01-15T15:31:39;9.80;69.00
14850;DHT22;7517;48.400;11.770;2023-01-15T15:34:35;9.80;68.90
14850;DHT22;7517;48.400;11.770;2023-01-15T15:37:12;9.80;68.80
14850;DHT22;7517;48.400;11.770;2023-01-15T15:39:48;9.80;69.00
14850;DHT22;7517;48.400;11.770;2023-01-15T15:42:20;9.70;68.80
14850;DHT22;7517;48.400;11.770;2023-01-15T15:45:16;9.70;68.80
14850;DHT22;7517;48.400;11.770;2023-01-15T15:48:11;9.70;68.80
14850;DHT22;7517;48.400;11.770;2023-01-15T15:50:57;9.70;68.90
14850;DHT22;7517;48.400;11.770;2023-01-15T15:53:25;9.70;68.80
14850;DHT22;7517;48.400;11.770;2023-01-15T15:55:57;9.60;68.80
14850;DHT22;7517;48.400;11.770;2023-01-15T15:58:35;9.60;69.00
14850;DHT22;7517;48.400;11.770;2023-01-15T16:01:09;9.60;69.00
14850;DHT22;7517;48.400;11.770;2023-01-15T16:03:45;9.60;69.10
14850;DHT22;7517;48.400;11.770;2023-01-15T16:06:18;9.60;69.10
14850;DHT22;7517;48.400;11.770;2023-01-15T16:08:52;9.60;69.10
14850;DHT22;7517;48.400;11.770;2023-01-15T16:11:24;9.50;69.20
14850;DHT22;7517;48.400;11.770;2023-01-15T16:13:55;9.50;69.30
14850;DHT22;7517;48.400;11.770;2023-01-15T16:16:27;9.50;69.40
14850;DHT22;7517;48.400;11.770;2023-01-15T16:18:56;9.50;69.50
14850;DHT22;7517;48.400;11.770;2023-01-15T16:21:27;9.50;69.50
14850;DHT22;7517;48.400;11.770;2023-01-15T16:23:59;9.50;69.70
14850;DHT22;7517;48.400;11.770;2023-01-15T16:26:31;9.50;69.70
14850;DHT22;7517;48.400;11.770;2023-01-15T16:29:12;9.50;69.60
14850;DHT22;7517;48.400;11.770;2023-01-15T16:31:45;9.60;69.80
14850;DHT22;7517;48.400;11.770;2023-01-15T16:34:17;9.50;69.80